Time;durP1;ratioP1;P1;durP2;ratioP2;P2;SDS_P1;SDS_P2;PMS_P1;PMS_P2;Temp;Humidity;BMP_temperature;BMP_pressure;BME280_temperature;BME280_humidity;BME280_pressure;Samples;Min_cycle;Max_cycle;Signal;HPM_P1;HPM_P2
2024/01/10 00:00:07;;;;;;;7.65;6.30;;;-6.60;99.90;;;;;;4929521;29;20540;-72
2024/01/10 00:02:32;;;;;;;11.27;7.20;;;-6.50;99.90;;;;;;4928407;29;20102;-71
2024/01/10 00:04:58;;;;;;;9.13;6.35;;;-6.60;99.90;;;;;;4931587;29;20047;-73
2024/01/10 00:07:24;;;;;;;7.88;5.03;;;-6.60;99.90;;;;;;4924867;29;20051;-71
2024/01/10 00:09:49;;;;;;;10.55;6.10;;;-6.60;99.90;;;;;;4933258;29;20059;-72
2024/01/10 00:12:15;;;;;;;10.02;5.97;;;-6.60;99.90;;;;;;4928901;29;20032;-71
2024/01/10 00:14:41;;;;;;;6.25;4.65;;;-6.60;99.90;;;;;;4917412;29;20868;-72
2024/01/10 00:17:07;;;;;;;8.75;6.25;;;-6.50;99.90;;;;;;4926932;29;20407;-73
2024/01/10 00:19:35;;;;;;;9.88;6.53;;;-6.60;99.90;;;;;;4933751;29;20548;-72
2024/01/10 00:22:01;;;;;;;9.73;6.53;;;-6.60;99.90;;;;;;4928681;29;20097;-72
2024/01/10 00:24:27;;;;;;;8.93;5.95;;;-6.60;99.90;;;;;;4939291;29;20119;-73
2024/01/10 00:26:53;;;;;;;5.90;5.30;;;-6.60;99.90;;;;;;4920443;29;20032;-72
2024/01/10 00:29:19;;;;;;;10.57;6.90;;;-6.60;99.90;;;;;;4940715;29;20110;-73
2024/01/10 00:31:48;;;;;;;7.88;6.18;;;-6.60;99.90;;;;;;4916881;29;20047;-72
2024/01/10 00:34:16;;;;;;;4.70;4.32;;;-6.60;99.90;;;;;;4937065;29;20040;-73
2024/01/10 00:36:42;;;;;;;8.55;5.53;;;-6.60;99.90;;;;;;4930651;29;20051;-73
2024/01/10 00:39:08;;;;;;;6.65;4.82;;;-6.70;99.90;;;;;;4940262;29;20094;-71
2024/01/10 00:41:33;;;;;;;8.18;6.05;;;-6.60;99.90;;;;;;4940193;29;20106;-72
2024/01/10 00:43:59;;;;;;;10.43;6.47;;;-6.60;99.90;;;;;;4930253;29;20048;-76
2024/01/10 00:46:25;;;;;;;8.52;5.20;;;-6.60;99.90;;;;;;4944277;29;20067;-75
2024/01/10 00:48:50;;;;;;;6.53;4.82;;;-6.50;99.90;;;;;;4941070;29;20030;-76
2024/01/10 00:51:16;;;;;;;6.00;4.65;;;-6.70;99.90;;;;;;4940177;28;20094;-76
2024/01/10 00:53:42;;;;;;;7.43;4.22;;;-6.70;99.90;;;;;;4937829;29;20031;-76
2024/01/10 00:56:07;;;;;;;4.97;4.53;;;-6.70;99.90;;;;;;4941320;29;20116;-75
2024/01/10 00:58:33;;;;;;;6.40;5.82;;;-6.60;99.90;;;;;;4938850;29;20551;-75
2024/01/10 01:01:01;;;;;;;7.75;4.53;;;-6.70;99.90;;;;;;4929270;29;20032;-76
2024/01/10 01:03:27;;;;;;;9.85;6.05;;;-6.60;99.90;;;;;;4947225;29;20268;-76
2024/01/10 01:05:55;;;;;;;8.55;6.35;;;-6.60;99.90;;;;;;4944042;29;20059;-77
2024/01/10 01:08:21;;;;;;;13.70;7.28;;;-6.60;99.90;;;;;;4912788;29;20154;-77
2024/01/10 01:10:47;;;;;;;5.35;4.88;;;-6.50;99.90;;;;;;4946821;29;20055;-78
2024/01/10 01:13:12;;;;;;;8.02;5.30;;;-6.50;99.90;;;;;;4924827;29;20031;-77
2024/01/10 01:15:38;;;;;;;11.45;6.32;;;-6.50;99.90;;;;;;4941985;29;20032;-75
2024/01/10 01:18:04;;;;;;;6.43;5.32;;;-6.50;99.90;;;;;;4939562;29;20127;-76
2024/01/10 01:20:30;;;;;;;12.00;8.07;;;-6.50;99.90;;;;;;4918803;29;20094;-77
2024/01/10 01:22:55;;;;;;;8.82;6.95;;;-6.50;99.90;;;;;;4919860;29;20102;-76
2024/01/10 01:25:21;;;;;;;7.68;6.00;;;-6.50;99.90;;;;;;4937247;29;20024;-76
2024/01/10 01:27:46;;;;;;;8.88;5.63;;;-6.50;99.90;;;;;;4945562;29;20400;-75
2024/01/10 01:30:12;;;;;;;17.85;7.05;;;-6.50;99.90;;;;;;4925186;29;20045;-77
2024/01/10 01:32:38;;;;;;;14.95;5.88;;;-6.60;99.90;;;;;;4935175;29;20044;-77
2024/01/10 01:35:04;;;;;;;10.38;6.00;;;-6.60;99.90;;;;;;4932258;29;20034;-77
2024/01/10 01:37:30;;;;;;;10.90;5.47;;;-6.50;99.90;;;;;;4935604;29;20044;-78
2024/01/10 01:39:56;;;;;;;9.07;5.45;;;-6.60;99.90;;;;;;4941303;29;20044;-76
2024/01/10 01:42:22;;;;;;;8.55;5.75;;;-6.60;99.90;;;;;;4942594;29;20500;-73
2024/01/10 01:44:47;;;;;;;8.52;5.18;;;-6.60;99.90;;;;;;4934836;29;20046;-74
2024/01/10 01:47:14;;;;;;;10.65;5.53;;;-6.50;99.90;;;;;;4937408;29;20028;-74
2024/01/10 01:49:42;;;;;;;9.75;7.63;;;-6.50;99.90;;;;;;4936681;29;20174;-73
2024/01/10 01:52:10;;;;;;;9.70;5.60;;;-6.50;99.90;;;;;;4915626;29;20089;-76
2024/01/10 01:54:36;;;;;;;12.82;5.97;;;-6.40;99.90;;;;;;4952250;29;20066;-78
2024/01/10 01:57:03;;;;;;;9.27;5.38;;;-6.50;99.90;;;;;;4941023;29;20519;-78
2024/01/10 01:59:29;;;;;;;5.82;4.47;;;-6.50;99.90;;;;;;4924715;29;20099;-78
2024/01/10 02:01:56;;;;;;;6.47;4.93;;;-6.60;99.90;;;;;;4943579;28;20044;-77
2024/01/10 02:04:23;;;;;;;6.43;5.43;;;-6.50;99.90;;;;;;4921114;29;20074;-78
2024/01/10 02:06:48;;;;;;;8.50;6.53;;;-6.50;99.90;;;;;;4939254;29;20042;-78
2024/01/10 02:09:14;;;;;;;9.25;6.95;;;-6.60;99.90;;;;;;4938803;29;20083;-78
2024/01/10 02:11:40;;;;;;;7.47;5.00;;;-6.60;99.90;;;;;;4945239;29;20039;-76
2024/01/10 02:14:06;;;;;;;12.00;6.88;;;-6.50;99.90;;;;;;4945382;29;20712;-76
2024/01/10 02:16:32;;;;;;;8.15;5.60;;;-6.50;99.90;;;;;;4946433;29;20094;-77
2024/01/10 02:18:58;;;;;;;7.10;6.47;;;-6.50;99.90;;;;;;4945652;28;20065;-77
2024/01/10 02:21:24;;;;;;;6.72;5.13;;;-6.50;99.90;;;;;;4946733;29;20035;-77
2024/01/10 02:23:49;;;;;;;7.43;6.03;;;-6.50;99.90;;;;;;4945795;29;20480;-77
2024/01/10 02:26:15;;;;;;;5.40;4.75;;;-6.60;99.90;;;;;;4928192;29;20032;-77
2024/01/10 02:28:41;;;;;;;11.00;5.85;;;-6.60;99.90;;;;;;4949201;29;20034;-77
2024/01/10 02:31:07;;;;;;;7.18;6.68;;;-6.50;99.90;;;;;;4943197;28;20040;-76
2024/01/10 02:33:33;;;;;;;7.93;6.63;;;-6.60;99.90;;;;;;4941931;29;20067;-76
2024/01/10 02:35:58;;;;;;;7.93;6.32;;;-6.50;99.90;;;;;;4944965;29;20059;-76
2024/01/10 02:38:24;;;;;;;8.38;6.13;;;-6.50;99.90;;;;;;4943706;29;20059;-76
2024/01/10 02:40:50;;;;;;;4.93;4.28;;;-6.50;99.90;;;;;;4948997;28;20031;-77
2024/01/10 02:43:15;;;;;;;6.47;5.97;;;-6.60;99.90;;;;;;4943376;29;20059;-77
2024/01/10 02:45:41;;;;;;;8.95;6.25;;;-6.50;99.90;;;;;;4941982;29;20020;-76
2024/01/10 02:48:07;;;;;;;7.82;7.03;;;-6.50;99.90;;;;;;4945222;29;20044;-77
2024/01/10 02:50:33;;;;;;;7.97;5.82;;;-6.40;99.90;;;;;;4942237;29;20031;-77
2024/01/10 02:52:58;;;;;;;7.57;5.70;;;-6.40;99.90;;;;;;4945048;29;20364;-76
2024/01/10 02:55:24;;;;;;;7.82;6.13;;;-6.40;99.90;;;;;;4941823;29;20027;-77
2024/01/10 02:57:49;;;;;;;7.78;7.18;;;-6.40;99.90;;;;;;4943902;29;20028;-77
2024/01/10 03:00:15;;;;;;;15.00;6.65;;;-6.30;99.90;;;;;;4948661;29;20602;-77
2024/01/10 03:02:41;;;;;;;6.93;6.22;;;-6.30;99.90;;;;;;4926397;29;20134;-75
2024/01/10 03:05:07;;;;;;;8.02;7.32;;;-6.30;99.90;;;;;;4944698;28;20043;-77
2024/01/10 03:07:33;;;;;;;7.13;5.85;;;-6.30;99.90;;;;;;4945815;29;20102;-77
2024/01/10 03:09:58;;;;;;;11.30;4.93;;;-6.30;99.90;;;;;;4939296;29;20087;-76
2024/01/10 03:12:24;;;;;;;6.55;5.32;;;-6.30;99.90;;;;;;4926882;29;20539;-75
2024/01/10 03:14:49;;;;;;;6.38;5.38;;;-6.30;99.90;;;;;;4942098;29;20032;-76
2024/01/10 03:17:15;;;;;;;5.10;4.60;;;-6.30;99.90;;;;;;4926538;29;20062;-75
2024/01/10 03:19:44;;;;;;;7.43;5.60;;;-6.30;99.90;;;;;;4942835;29;20028;-77
2024/01/10 03:22:13;;;;;;;10.20;4.55;;;-6.20;99.90;;;;;;4942769;29;20143;-75
2024/01/10 03:24:39;;;;;;;11.13;7.25;;;-6.20;99.90;;;;;;4941744;29;20048;-75
2024/01/10 03:27:05;;;;;;;7.15;6.43;;;-6.20;99.90;;;;;;4942729;29;20083;-75
2024/01/10 03:29:30;;;;;;;9.45;6.93;;;-6.20;99.90;;;;;;4942933;29;20040;-75
2024/01/10 03:31:56;;;;;;;5.10;4.65;;;-6.20;99.90;;;;;;4927384;29;20044;-74
2024/01/10 03:34:21;;;;;;;4.00;3.70;;;-6.20;99.90;;;;;;4941070;29;20040;-76
2024/01/10 03:36:47;;;;;;;7.35;6.63;;;-6.20;99.90;;;;;;4941482;29;20076;-76
2024/01/10 03:39:13;;;;;;;6.00;5.40;;;-6.20;99.90;;;;;;4943572;29;20043;-76
2024/01/10 03:41:38;;;;;;;9.95;6.30;;;-6.20;99.90;;;;;;4942200;29;20534;-75
2024/01/10 03:44:04;;;;;;;10.43;6.20;;;-6.20;99.90;;;;;;4942816;29;20334;-76
2024/01/10 03:46:30;;;;;;;6.68;6.05;;;-6.30;99.90;;;;;;4941913;29;20039;-76
2024/01/10 03:48:56;;;;;;;6.22;5.45;;;-6.20;99.90;;;;;;4941766;29;20058;-75
2024/01/10 03:51:21;;;;;;;10.85;7.20;;;-6.20;99.90;;;;;;4936239;29;20090;-77
2024/01/10 03:53:49;;;;;;;11.80;7.78;;;-6.10;99.90;;;;;;4940760;29;20464;-76
2024/01/10 03:56:15;;;;;;;13.70;6.93;;;-6.20;99.90;;;;;;4941205;29;20035;-76
2024/01/10 03:58:40;;;;;;;7.57;4.97;;;-6.20;99.90;;;;;;4939245;29;20039;-78
2024/01/10 04:01:07;;;;;;;14.63;8.55;;;-6.10;99.90;;;;;;4940393;29;20174;-75
2024/01/10 04:03:33;;;;;;;10.77;8.45;;;-6.10;99.90;;;;;;4941112;29;20044;-77
2024/01/10 04:05:59;;;;;;;7.15;5.57;;;-6.10;99.90;;;;;;4945459;29;20043;-76
2024/01/10 04:08:24;;;;;;;13.07;6.03;;;-6.10;99.90;;;;;;4945305;29;20032;-76
2024/01/10 04:10:50;;;;;;;8.55;5.68;;;-6.10;99.90;;;;;;4942113;29;20031;-80
2024/01/10 04:13:16;;;;;;;11.73;6.47;;;-6.10;99.90;;;;;;4944023;29;20055;-76
2024/01/10 04:15:41;;;;;;;13.52;8.98;;;-6.00;99.90;;;;;;4942106;29;20487;-77
2024/01/10 04:18:10;;;;;;;11.68;6.05;;;-6.10;99.90;;;;;;4943396;29;20284;-77
2024/01/10 04:20:35;;;;;;;11.65;7.45;;;-6.20;99.90;;;;;;4925873;29;20111;-76
2024/01/10 04:23:02;;;;;;;16.15;9.48;;;-6.20;99.90;;;;;;4928002;29;20047;-77
2024/01/10 04:25:28;;;;;;;12.10;7.45;;;-6.20;99.90;;;;;;4927709;29;20078;-76
2024/01/10 04:27:55;;;;;;;9.93;6.35;;;-6.10;99.90;;;;;;4943563;29;20036;-76
2024/01/10 04:30:20;;;;;;;14.18;7.40;;;-6.10;99.90;;;;;;4946490;29;20055;-76
2024/01/10 04:32:46;;;;;;;8.10;6.72;;;-6.20;99.90;;;;;;4939991;29;20023;-76
2024/01/10 04:35:12;;;;;;;9.10;5.88;;;-6.10;99.90;;;;;;4944727;29;20040;-75
2024/01/10 04:37:37;;;;;;;10.77;7.18;;;-6.00;99.90;;;;;;4946026;29;20035;-75
2024/01/10 04:40:03;;;;;;;10.52;8.52;;;-6.10;99.90;;;;;;4943315;29;20028;-77
2024/01/10 04:42:30;;;;;;;8.07;6.22;;;-6.10;99.90;;;;;;4943851;29;20059;-76
2024/01/10 04:44:56;;;;;;;12.93;7.20;;;-6.00;99.90;;;;;;4938593;29;20063;-76
2024/01/10 04:47:22;;;;;;;11.90;6.82;;;-6.00;99.90;;;;;;4943748;29;20035;-76
2024/01/10 04:49:47;;;;;;;8.93;7.40;;;-5.90;99.90;;;;;;4924972;29;20238;-76
2024/01/10 04:52:13;;;;;;;15.48;7.70;;;-5.90;99.90;;;;;;4942265;29;20039;-76
2024/01/10 04:54:38;;;;;;;11.90;7.60;;;-5.90;99.90;;;;;;4942422;29;20084;-75
2024/01/10 04:57:04;;;;;;;16.50;10.82;;;-5.80;99.90;;;;;;4941416;29;20655;-76
2024/01/10 04:59:30;;;;;;;11.38;7.57;;;-5.80;99.90;;;;;;4942030;29;20028;-77
2024/01/10 05:01:56;;;;;;;8.02;6.95;;;-5.80;99.90;;;;;;4939883;29;20486;-77
2024/01/10 05:04:21;;;;;;;14.98;8.20;;;-5.70;99.90;;;;;;4935312;29;20040;-76
2024/01/10 05:06:47;;;;;;;14.27;8.65;;;-5.70;99.90;;;;;;4942326;29;20027;-76
2024/01/10 05:09:13;;;;;;;13.93;8.70;;;-5.70;99.90;;;;;;4940497;29;20040;-76
2024/01/10 05:11:39;;;;;;;18.20;9.10;;;-5.60;99.90;;;;;;4942321;29;20031;-77
2024/01/10 05:14:05;;;;;;;14.50;9.27;;;-5.60;99.90;;;;;;4942703;29;20699;-75
2024/01/10 05:16:31;;;;;;;15.30;9.73;;;-5.60;99.90;;;;;;4942586;29;20087;-76
2024/01/10 05:19:00;;;;;;;13.38;9.13;;;-5.60;99.90;;;;;;4940541;29;20059;-76
2024/01/10 05:21:26;;;;;;;13.10;8.93;;;-5.60;99.90;;;;;;4940397;29;20035;-76
2024/01/10 05:23:52;;;;;;;13.70;7.93;;;-5.60;99.90;;;;;;4935107;29;20155;-72
2024/01/10 05:26:17;;;;;;;10.32;6.57;;;-5.60;99.90;;;;;;4938418;29;20067;-73
2024/01/10 05:28:43;;;;;;;12.52;6.47;;;-5.50;99.90;;;;;;4936224;29;20049;-73
2024/01/10 05:31:08;;;;;;;13.95;9.50;;;-5.50;99.90;;;;;;4941739;29;20392;-74
2024/01/10 05:33:34;;;;;;;17.83;8.13;;;-5.50;99.90;;;;;;4937305;29;20038;-73
2024/01/10 05:36:00;;;;;;;14.27;7.55;;;-5.50;99.90;;;;;;4929228;29;20082;-73
2024/01/10 05:38:25;;;;;;;18.65;12.07;;;-5.50;99.90;;;;;;4933122;29;20128;-74
2024/01/10 05:40:51;;;;;;;15.43;8.77;;;-5.50;99.90;;;;;;4939219;29;20043;-73
2024/01/10 05:43:17;;;;;;;12.20;9.18;;;-5.50;99.90;;;;;;4933295;29;20118;-73
2024/01/10 05:45:43;;;;;;;12.18;8.88;;;-5.50;99.90;;;;;;4929415;29;20155;-73
2024/01/10 05:48:08;;;;;;;23.75;9.00;;;-5.50;99.90;;;;;;4930533;29;20075;-73
2024/01/10 05:50:34;;;;;;;21.08;9.25;;;-5.60;99.90;;;;;;4929442;29;20036;-73
2024/01/10 05:53:00;;;;;;;10.43;7.25;;;-5.60;99.90;;;;;;4931428;29;20042;-74
2024/01/10 05:55:25;;;;;;;11.73;8.63;;;-5.60;99.90;;;;;;4938012;29;20046;-73
2024/01/10 05:57:52;;;;;;;25.00;12.73;;;-5.60;99.90;;;;;;4939502;29;20151;-73
2024/01/10 06:00:17;;;;;;;23.05;11.02;;;-5.60;99.90;;;;;;4932202;29;20024;-73
2024/01/10 06:02:43;;;;;;;17.95;8.57;;;-5.60;99.90;;;;;;4935645;29;20058;-74
2024/01/10 06:05:10;;;;;;;9.18;8.18;;;-5.70;99.90;;;;;;4934515;29;20551;-73
2024/01/10 06:07:37;;;;;;;13.23;7.10;;;-5.60;99.90;;;;;;4930604;29;20043;-74
2024/01/10 06:10:04;;;;;;;16.75;10.20;;;-5.60;99.90;;;;;;4914729;29;20031;-72
2024/01/10 06:12:30;;;;;;;24.15;12.05;;;-5.60;99.90;;;;;;4929733;29;20059;-73
2024/01/10 06:14:55;;;;;;;23.67;11.15;;;-5.50;99.90;;;;;;4934377;29;20126;-71
2024/01/10 06:17:21;;;;;;;13.70;8.75;;;-5.50;99.90;;;;;;4934894;29;20027;-72
2024/01/10 06:19:47;;;;;;;17.42;10.05;;;-5.50;99.90;;;;;;4933245;29;20047;-73
2024/01/10 06:22:13;;;;;;;12.30;8.52;;;-5.40;99.90;;;;;;4934157;29;20036;-80
2024/01/10 06:24:40;;;;;;;14.50;8.00;;;-5.40;99.90;;;;;;4933045;29;20126;-75
2024/01/10 06:27:06;;;;;;;24.02;9.82;;;-5.40;99.90;;;;;;4938214;29;20045;-75
2024/01/10 06:29:33;;;;;;;18.90;11.43;;;-5.40;99.90;;;;;;4937077;29;20032;-73
2024/01/10 06:32:00;;;;;;;14.50;9.35;;;-5.40;99.90;;;;;;4935946;29;20055;-73
2024/01/10 06:34:27;;;;;;;13.70;9.77;;;-5.30;99.90;;;;;;4937796;29;20031;-73
2024/01/10 06:36:53;;;;;;;13.52;9.48;;;-5.30;99.90;;;;;;4922474;29;20036;-74
2024/01/10 06:39:19;;;;;;;14.25;8.38;;;-5.30;99.90;;;;;;4922816;29;20040;-73
2024/01/10 06:41:47;;;;;;;14.65;9.82;;;-5.30;99.90;;;;;;4936551;29;20023;-74
2024/01/10 06:44:13;;;;;;;11.57;10.50;;;-5.40;99.90;;;;;;4921037;29;20047;-74
2024/01/10 06:46:39;;;;;;;24.38;10.82;;;-5.30;99.90;;;;;;4939499;29;20528;-75
2024/01/10 06:49:04;;;;;;;18.33;10.52;;;-5.40;99.90;;;;;;4940192;29;20036;-74
2024/01/10 06:51:31;;;;;;;16.33;9.57;;;-5.30;99.90;;;;;;4941208;29;20054;-75
2024/01/10 06:54:03;;;;;;;17.95;9.63;;;-5.30;99.90;;;;;;4936645;29;20121;-72
2024/01/10 06:56:30;;;;;;;9.98;8.93;;;-5.30;99.90;;;;;;4939502;29;20543;-74
2024/01/10 06:58:56;;;;;;;16.85;9.23;;;-5.30;99.90;;;;;;4919718;29;20063;-74
2024/01/10 07:01:21;;;;;;;16.77;8.07;;;-5.30;99.90;;;;;;4937032;29;20499;-75
2024/01/10 07:03:48;;;;;;;12.70;8.40;;;-5.30;99.90;;;;;;4936673;29;20796;-74
2024/01/10 07:06:17;;;;;;;26.48;11.27;;;-5.30;99.90;;;;;;4935303;29;20071;-75
2024/01/10 07:08:44;;;;;;;13.35;8.20;;;-5.40;99.90;;;;;;4935612;29;20032;-75
2024/01/10 07:11:11;;;;;;;14.40;8.10;;;-5.40;99.90;;;;;;4936754;29;20024;-74
2024/01/10 07:13:37;;;;;;;28.15;11.07;;;-5.40;99.90;;;;;;4938066;29;20035;-73
2024/01/10 07:16:03;;;;;;;12.55;8.15;;;-5.40;99.90;;;;;;4936243;29;20027;-74
2024/01/10 07:18:29;;;;;;;16.02;10.68;;;-5.40;99.90;;;;;;4936866;29;20043;-75
2024/01/10 07:20:55;;;;;;;14.80;11.07;;;-5.40;99.90;;;;;;4932834;29;20062;-75
2024/01/10 07:23:20;;;;;;;16.60;10.68;;;-5.50;99.90;;;;;;4932794;29;20087;-76
2024/01/10 07:25:46;;;;;;;16.58;10.57;;;-5.50;99.90;;;;;;4936318;29;20066;-74
2024/01/10 07:28:12;;;;;;;21.70;10.10;;;-5.60;99.90;;;;;;4935831;29;20496;-75
2024/01/10 07:30:38;;;;;;;20.35;11.45;;;-5.60;99.90;;;;;;4936735;29;20514;-74
2024/01/10 07:33:03;;;;;;;15.70;10.77;;;-5.60;99.90;;;;;;4936355;29;20039;-74
2024/01/10 07:35:30;;;;;;;19.52;10.50;;;-5.60;99.90;;;;;;4920715;29;20459;-75
2024/01/10 07:37:56;;;;;;;17.02;9.23;;;-5.60;99.90;;;;;;4920767;29;20024;-74
2024/01/10 07:40:25;;;;;;;18.63;10.13;;;-5.60;99.90;;;;;;4943933;29;20043;-74
2024/01/10 07:42:50;;;;;;;17.25;9.65;;;-5.50;99.90;;;;;;4939586;29;20024;-77
2024/01/10 07:45:16;;;;;;;13.60;9.07;;;-5.50;99.90;;;;;;4949917;29;20063;-76
2024/01/10 07:47:42;;;;;;;22.40;12.98;;;-5.50;99.90;;;;;;4944614;29;20528;-78
2024/01/10 07:50:09;;;;;;;24.92;12.35;;;-5.60;99.90;;;;;;4948313;29;20492;-76
2024/01/10 07:52:35;;;;;;;13.82;12.13;;;-5.60;99.90;;;;;;4942452;29;20118;-77
2024/01/10 07:55:01;;;;;;;28.45;13.48;;;-5.70;99.90;;;;;;4944472;29;20510;-75
2024/01/10 07:57:27;;;;;;;18.77;10.07;;;-5.60;99.90;;;;;;4944850;29;20040;-76
2024/01/10 07:59:56;;;;;;;17.63;9.85;;;-5.60;99.90;;;;;;4946101;29;20071;-75
2024/01/10 08:02:22;;;;;;;27.50;13.52;;;-5.60;99.90;;;;;;4943546;29;20063;-75
2024/01/10 08:04:48;;;;;;;16.00;10.15;;;-5.60;99.90;;;;;;4942912;29;20054;-75
2024/01/10 08:07:14;;;;;;;22.35;11.50;;;-5.60;99.90;;;;;;4942727;29;20042;-77
2024/01/10 08:09:39;;;;;;;20.13;11.77;;;-5.50;99.90;;;;;;4944036;29;20031;-76
2024/01/10 08:12:05;;;;;;;21.67;11.25;;;-5.50;99.90;;;;;;4943438;29;20024;-76
2024/01/10 08:14:31;;;;;;;18.45;12.05;;;-5.40;99.90;;;;;;4944321;29;20042;-76
2024/01/10 08:16:58;;;;;;;22.63;12.52;;;-5.40;99.90;;;;;;4940763;29;20035;-77
2024/01/10 08:19:30;;;;;;;22.83;10.63;;;-5.40;99.90;;;;;;4943050;29;20436;-77
2024/01/10 08:21:58;;;;;;;22.58;12.40;;;-5.40;99.90;;;;;;4940324;29;20028;-78
2024/01/10 08:24:23;;;;;;;19.80;11.73;;;-5.30;99.90;;;;;;4943523;29;20133;-79
2024/01/10 08:26:51;;;;;;;25.92;13.73;;;-5.30;99.90;;;;;;4942099;29;20050;-80
2024/01/10 08:29:18;;;;;;;20.38;13.00;;;-5.30;99.90;;;;;;4942330;29;20059;-79
2024/01/10 08:31:44;;;;;;;16.02;10.32;;;-5.20;99.90;;;;;;4923451;29;20052;-79
2024/01/10 08:34:10;;;;;;;18.95;12.65;;;-5.20;99.90;;;;;;4941921;29;20039;-76
2024/01/10 08:36:36;;;;;;;17.00;10.82;;;-5.20;99.90;;;;;;4942994;29;20036;-77
2024/01/10 08:39:03;;;;;;;14.88;9.77;;;-5.10;99.90;;;;;;4943083;29;20035;-76
2024/01/10 08:41:29;;;;;;;13.60;10.45;;;-5.10;99.90;;;;;;4926710;29;20182;-76
2024/01/10 08:43:54;;;;;;;16.67;10.85;;;-5.10;99.90;;;;;;4921082;29;20111;-72
2024/01/10 08:46:20;;;;;;;34.25;15.80;;;-5.00;99.90;;;;;;4929312;29;20039;-74
2024/01/10 08:48:47;;;;;;;32.03;14.65;;;-5.10;99.90;;;;;;4931737;29;20715;-73
2024/01/10 08:51:16;;;;;;;29.88;12.88;;;-5.10;99.90;;;;;;4930968;29;20039;-73
2024/01/10 08:53:42;;;;;;;;;;;-5.00;99.90;;;;;;4939623;29;20505;-76
2024/01/10 08:56:07;;;;;;;31.70;15.35;;;-5.10;99.90;;;;;;4920744;29;19907;-76
2024/01/10 08:58:33;;;;;;;23.45;14.07;;;-5.10;99.90;;;;;;4942637;29;20074;-76
2024/01/10 09:00:59;;;;;;;35.05;15.55;;;-5.00;99.90;;;;;;4941435;29;20083;-77
2024/01/10 09:03:24;;;;;;;20.63;11.70;;;-5.00;99.90;;;;;;4944180;29;20050;-78
2024/01/10 09:05:50;;;;;;;21.17;11.70;;;-5.00;99.90;;;;;;4943879;29;20043;-76
2024/01/10 09:08:16;;;;;;;21.88;10.13;;;-4.90;99.90;;;;;;4943256;29;20087;-76
2024/01/10 09:10:42;;;;;;;25.38;13.43;;;-4.80;99.90;;;;;;4944025;29;20024;-77
2024/01/10 09:13:08;;;;;;;23.58;12.23;;;-4.70;99.90;;;;;;4923642;29;20031;-75
2024/01/10 09:15:34;;;;;;;17.15;12.88;;;-4.70;99.90;;;;;;4943421;29;20516;-76
2024/01/10 09:18:00;;;;;;;25.83;12.13;;;-4.60;99.90;;;;;;4943327;29;20027;-77
2024/01/10 09:20:25;;;;;;;36.45;16.73;;;-4.50;99.90;;;;;;4942970;29;20060;-84
2024/01/10 09:22:51;;;;;;;19.92;10.05;;;-4.40;99.90;;;;;;4898460;29;1249394;-77
2024/01/10 09:25:17;;;;;;;26.55;14.25;;;-4.50;99.90;;;;;;4944588;29;20039;-78
2024/01/10 09:27:43;;;;;;;49.22;16.63;;;-4.40;99.90;;;;;;4944449;29;20027;-78
2024/01/10 09:30:10;;;;;;;36.33;16.23;;;-4.40;99.90;;;;;;4926854;29;20036;-76
2024/01/10 09:32:36;;;;;;;29.00;12.88;;;-4.30;99.90;;;;;;4938564;29;20040;-76
2024/01/10 09:35:02;;;;;;;37.95;14.52;;;-4.30;99.90;;;;;;4942681;29;20063;-78
2024/01/10 09:37:28;;;;;;;32.67;15.90;;;-4.20;99.90;;;;;;4943060;29;20047;-78
2024/01/10 09:39:53;;;;;;;32.65;15.77;;;-4.20;99.90;;;;;;4945198;29;20056;-77
2024/01/10 09:42:25;;;;;;;28.25;15.07;;;-4.20;99.90;;;;;;4946463;29;20031;-76
2024/01/10 09:44:52;;;;;;;30.95;14.15;;;-4.20;99.90;;;;;;4936390;29;20028;-76
2024/01/10 09:47:20;;;;;;;37.33;16.10;;;-4.10;99.90;;;;;;4932887;29;20046;-78
2024/01/10 09:49:46;;;;;;;37.90;16.10;;;-4.10;99.90;;;;;;4943745;29;20031;-77
2024/01/10 09:52:19;;;;;;;23.50;11.93;;;-4.10;99.90;;;;;;4941471;29;20043;-77
2024/01/10 09:54:47;;;;;;;26.83;12.98;;;-4.00;99.90;;;;;;4944165;29;20031;-80
2024/01/10 09:57:13;;;;;;;32.67;14.55;;;-3.90;99.90;;;;;;4944320;29;20031;-80
2024/01/10 09:59:38;;;;;;;27.92;13.82;;;-3.80;99.90;;;;;;4943919;29;20039;-79
2024/01/10 10:02:04;;;;;;;26.23;11.40;;;-3.80;99.90;;;;;;4942020;29;20035;-79
2024/01/10 10:04:31;;;;;;;25.27;14.82;;;-3.80;99.90;;;;;;4943899;29;20038;-77
2024/01/10 10:07:01;;;;;;;24.63;12.63;;;-3.80;99.90;;;;;;4942821;28;20036;-77
2024/01/10 10:09:28;;;;;;;30.23;13.70;;;-3.70;99.90;;;;;;4943381;28;20024;-77
2024/01/10 10:11:59;;;;;;;30.65;13.32;;;-3.70;99.90;;;;;;4941961;28;20020;-78
2024/01/10 10:14:29;;;;;;;26.70;14.25;;;-3.70;99.90;;;;;;4942066;29;20024;-77
2024/01/10 10:16:54;;;;;;;27.38;12.85;;;-3.60;99.90;;;;;;4942229;29;20047;-77
2024/01/10 10:19:24;;;;;;;32.03;15.27;;;-3.50;99.90;;;;;;4941850;29;20095;-77
2024/01/10 10:21:50;;;;;;;33.85;15.65;;;-3.60;99.90;;;;;;4937839;29;20038;-77
2024/01/10 10:24:17;;;;;;;36.80;16.30;;;-3.50;99.90;;;;;;4947890;28;20052;-77
2024/01/10 10:26:42;;;;;;;28.20;13.88;;;-3.50;99.90;;;;;;4949357;28;20036;-78
2024/01/10 10:29:09;;;;;;;31.08;15.15;;;-3.40;99.90;;;;;;4946050;29;20519;-78
2024/01/10 10:31:35;;;;;;;28.60;12.02;;;-3.40;99.90;;;;;;4941579;28;20040;-77
2024/01/10 10:34:02;;;;;;;35.97;15.13;;;-3.40;99.90;;;;;;4933612;29;20515;-77
2024/01/10 10:36:31;;;;;;;25.35;12.85;;;-3.40;99.90;;;;;;4947817;29;20038;-77
2024/01/10 10:39:02;;;;;;;29.92;16.00;;;-3.30;99.90;;;;;;4947834;28;20038;-78
2024/01/10 10:41:30;;;;;;;38.30;16.02;;;-3.20;99.90;;;;;;4952269;29;20043;-78
2024/01/10 10:43:57;;;;;;;32.95;15.90;;;-3.30;99.90;;;;;;4950609;29;20648;-79
2024/01/10 10:46:25;;;;;;;38.22;16.25;;;-3.20;99.90;;;;;;4931153;29;20103;-79
2024/01/10 10:48:52;;;;;;;42.97;18.33;;;-3.10;99.90;;;;;;4942152;28;20042;-77
2024/01/10 10:51:32;;;;;;;37.60;17.35;;;-3.10;99.90;;;;;;4958148;29;20063;-77
2024/01/10 10:54:00;;;;;;;35.92;18.50;;;-3.10;99.90;;;;;;4940722;28;20039;-78
2024/01/10 10:56:36;;;;;;;38.63;16.57;;;-3.00;99.90;;;;;;4941711;29;20100;-77
2024/01/10 10:59:04;;;;;;;30.33;14.85;;;-3.00;99.90;;;;;;4946527;29;20036;-78
2024/01/10 11:01:31;;;;;;;34.13;15.30;;;-2.90;99.90;;;;;;4946078;28;20051;-77
2024/01/10 11:03:58;;;;;;;23.75;12.27;;;-2.90;99.90;;;;;;4943477;28;20086;-78
2024/01/10 11:06:24;;;;;;;38.70;17.55;;;-2.80;99.90;;;;;;4948650;28;20024;-79
2024/01/10 11:08:53;;;;;;;41.92;16.33;;;-2.70;99.90;;;;;;4945703;28;20062;-78
2024/01/10 11:11:34;;;;;;;35.38;15.35;;;-2.70;99.90;;;;;;4953738;29;20110;-79
2024/01/10 11:14:43;;;;;;;38.72;13.52;;;-2.60;99.90;;;;;;4939774;29;20061;-77
2024/01/10 11:17:31;;;;;;;44.58;19.15;;;-2.60;99.90;;;;;;4944710;29;20043;-76
2024/01/10 11:20:23;;;;;;;40.47;19.00;;;-2.60;99.90;;;;;;4943640;29;20035;-77
2024/01/10 11:23:26;;;;;;;38.00;16.83;;;-2.60;99.90;;;;;;4950733;29;20061;-78
2024/01/10 11:25:52;;;;;;;36.92;16.10;;;-2.70;99.90;;;;;;4925081;29;20357;-81
2024/01/10 11:28:17;;;;;;;44.10;19.48;;;-2.80;99.90;;;;;;4947806;29;20047;-78
2024/01/10 11:30:51;;;;;;;46.22;17.80;;;-2.70;99.90;;;;;;4945816;29;20243;-80
2024/01/10 11:33:25;;;;;;;49.30;20.17;;;-2.70;99.90;;;;;;4934390;29;20659;-77
2024/01/10 11:36:09;;;;;;;31.30;12.95;;;-2.60;99.90;;;;;;4949874;29;20042;-77
2024/01/10 11:38:51;;;;;;;27.27;13.75;;;-2.60;99.90;;;;;;4942893;29;20027;-78
2024/01/10 11:41:46;;;;;;;36.45;16.95;;;-2.60;99.90;;;;;;4928312;29;20028;-77
2024/01/10 11:44:18;;;;;;;37.10;17.13;;;-2.50;99.90;;;;;;4927300;29;20079;-77
2024/01/10 11:46:53;;;;;;;38.88;17.13;;;-2.40;99.90;;;;;;4925100;29;20060;-78
2024/01/10 11:49:20;;;;;;;40.40;17.10;;;-2.40;99.90;;;;;;4946660;29;20055;-78
2024/01/10 11:51:48;;;;;;;39.85;16.70;;;-2.40;99.90;;;;;;4932881;29;20047;-78
2024/01/10 11:54:38;;;;;;;43.10;18.38;;;-2.50;99.90;;;;;;4951145;29;20020;-78
2024/01/10 11:57:28;;;;;;;39.70;16.92;;;-2.60;99.90;;;;;;4937388;29;20086;-78
2024/01/10 11:59:56;;;;;;;44.58;19.52;;;-2.60;99.90;;;;;;4947130;29;20036;-77
2024/01/10 12:02:26;;;;;;;29.38;14.52;;;-2.60;99.90;;;;;;4945716;29;20043;-78
2024/01/10 12:04:52;;;;;;;40.38;18.45;;;-2.60;99.90;;;;;;4944806;29;20024;-78
2024/01/10 12:07:19;;;;;;;45.75;19.35;;;-2.50;99.90;;;;;;4945745;29;20043;-77
2024/01/10 12:09:45;;;;;;;46.17;19.55;;;-2.50;99.90;;;;;;4946607;29;20031;-77
2024/01/10 12:12:13;;;;;;;39.67;18.05;;;-2.50;99.90;;;;;;4941808;29;20096;-75
2024/01/10 12:14:40;;;;;;;45.20;18.33;;;-2.50;99.90;;;;;;4941641;29;20035;-76
2024/01/10 12:17:08;;;;;;;31.92;16.40;;;-2.50;99.90;;;;;;4945296;29;20302;-75
2024/01/10 12:19:35;;;;;;;37.03;18.23;;;-2.40;99.90;;;;;;4941630;29;20035;-75
2024/01/10 12:22:01;;;;;;;35.53;16.07;;;-2.40;99.90;;;;;;4950697;29;20036;-76
2024/01/10 12:24:30;;;;;;;40.53;19.52;;;-2.50;99.90;;;;;;4941191;29;20159;-75
2024/01/10 12:26:57;;;;;;;38.30;15.88;;;-2.50;99.90;;;;;;4937189;29;20023;-74
2024/01/10 12:29:25;;;;;;;36.63;15.80;;;-2.40;99.90;;;;;;4940330;29;20042;-74
2024/01/10 12:31:51;;;;;;;26.77;13.50;;;-2.40;99.90;;;;;;4940858;28;20050;-75
2024/01/10 12:34:16;;;;;;;34.92;15.93;;;-2.30;99.90;;;;;;4940803;29;20032;-74